Time;durP1;ratioP1;P1;durP2;ratioP2;P2;SDS_P1;SDS_P2;PMS_P1;PMS_P2;Temp;Humidity;BMP_temperature;BMP_pressure;BME280_temperature;BME280_humidity;BME280_pressure;Samples;Min_cycle;Max_cycle;Signal;HPM_P1;HPM_P2
2022/10/24 00:04:40;;;;;;;6.57;2.65;;;;;;;13.26;100.00;100240.97;10394006;28;20052;-79
2022/10/24 00:09:41;;;;;;;9.63;2.85;;;;;;;13.17;100.00;100240.72;10428414;28;20495;-81
2022/10/24 00:14:41;;;;;;;9.27;3.20;;;;;;;13.13;100.00;100236.22;10443527;28;20038;-79
2022/10/24 00:19:42;;;;;;;11.65;4.85;;;;;;;13.16;100.00;100224.03;10407067;28;20083;-78
2022/10/24 00:24:42;;;;;;;8.85;2.55;;;;;;;13.31;100.00;100220.03;10423428;28;20095;-79
2022/10/24 00:29:43;;;;;;;6.85;2.90;;;;;;;13.21;100.00;100224.19;10404650;28;20045;-79
2022/10/24 00:34:43;;;;;;;14.20;4.28;;;;;;;13.14;100.00;100227.50;10409653;28;20103;-78
2022/10/24 00:39:44;;;;;;;11.98;2.50;;;;;;;13.25;98.72;100231.31;10412392;28;20490;-78
2022/10/24 00:44:45;;;;;;;11.45;3.65;;;;;;;13.43;97.31;100216.91;10417698;28;20116;-79
2022/10/24 00:49:48;;;;;;;14.95;3.75;;;;;;;13.51;95.79;100228.50;10461735;28;20113;-77
2022/10/24 00:54:49;;;;;;;7.53;2.65;;;;;;;13.94;92.09;100219.03;10429105;28;20037;-77
2022/10/24 00:59:52;;;;;;;6.20;2.78;;;;;;;14.03;90.53;100220.97;10387760;28;20041;-78
2022/10/24 01:04:55;;;;;;;9.35;3.03;;;;;;;14.07;89.19;100217.56;10416874;28;20050;-78
2022/10/24 01:10:06;;;;;;;6.07;2.67;;;;;;;14.47;85.70;100212.28;10373083;28;20038;-77
2022/10/24 01:15:09;;;;;;;16.00;4.90;;;;;;;14.43;85.73;100218.34;10400254;28;20099;-78
2022/10/24 01:20:29;;;;;;;5.00;2.55;;;;;;;14.42;85.17;100213.03;10434399;28;20045;-78
2022/10/24 01:25:44;;;;;;;11.30;3.03;;;;;;;14.26;85.11;100202.16;10435930;28;20432;-78
2022/10/24 01:30:49;;;;;;;6.68;2.28;;;;;;;14.11;86.63;100208.00;10402109;28;20029;-78
2022/10/24 01:35:55;;;;;;;4.47;1.77;;;;;;;14.24;85.53;100204.78;10396474;28;20071;-78
2022/10/24 01:41:13;;;;;;;10.68;2.60;;;;;;;14.21;85.05;100199.47;10442155;28;20063;-77
2022/10/24 01:46:25;;;;;;;16.38;3.03;;;;;;;14.19;84.86;100187.09;10423690;28;20041;-78
2022/10/24 01:51:26;;;;;;;10.90;2.80;;;;;;;14.04;85.92;100185.91;10383970;28;20095;-78
2022/10/24 01:56:26;;;;;;;8.68;2.85;;;;;;;13.77;87.29;100186.19;10351223;28;20494;-78
2022/10/24 02:01:27;;;;;;;12.82;3.53;;;;;;;13.67;89.45;100173.66;10408760;28;20049;-78
2022/10/24 02:06:30;;;;;;;31.20;3.33;;;;;;;13.40;89.74;100172.09;10402647;28;20033;-78
2022/10/24 02:11:31;;;;;;;6.15;2.35;;;;;;;13.43;89.28;100172.22;10383874;28;20037;-78
2022/10/24 02:16:32;;;;;;;11.17;2.63;;;;;;;13.45;88.94;100160.88;10380851;28;20167;-79
2022/10/24 02:21:40;;;;;;;6.50;2.22;;;;;;;13.49;89.34;100167.09;10398627;28;20099;-79
2022/10/24 02:26:56;;;;;;;5.50;1.98;;;;;;;13.32;89.75;100166.63;10404290;28;20041;-80
2022/10/24 02:31:57;;;;;;;6.97;2.78;;;;;;;13.45;88.65;100176.63;10434202;28;20115;-78
2022/10/24 02:36:57;;;;;;;9.25;1.98;;;;;;;13.72;86.51;100177.28;10409655;28;20033;-77
2022/10/24 02:41:58;;;;;;;3.85;1.83;;;;;;;14.15;82.13;100159.84;10414720;28;20048;-81
2022/10/24 02:46:59;;;;;;;6.93;2.17;;;;;;;14.18;82.87;100162.53;10415391;28;20178;-79
2022/10/24 02:52:00;;;;;;;7.80;1.90;;;;;;;13.96;82.76;100155.91;10405487;28;20124;-80
2022/10/24 02:57:01;;;;;;;6.10;1.95;;;;;;;13.86;84.51;100160.09;10398739;28;20038;-79
2022/10/24 03:02:01;;;;;;;5.15;1.70;;;;;;;13.82;83.44;100162.59;10416499;28;20046;-81
2022/10/24 03:07:02;;;;;;;5.97;2.30;;;;;;;13.92;82.43;100162.84;10401700;28;20049;-80
2022/10/24 03:12:03;;;;;;;6.70;1.80;;;;;;;14.14;80.35;100167.69;10408878;28;20473;-79
2022/10/24 03:17:03;;;;;;;9.68;1.92;;;;;;;14.28;80.11;100171.50;10431666;28;20042;-80
2022/10/24 03:22:04;;;;;;;6.88;1.40;;;;;;;14.15;79.87;100162.47;10434568;28;20611;-81
2022/10/24 03:27:05;;;;;;;4.80;1.65;;;;;;;14.17;79.49;100167.75;10440234;28;20036;-81
2022/10/24 03:32:05;;;;;;;7.78;2.47;;;;;;;14.40;78.62;100168.28;10422600;28;20044;-81
2022/10/24 03:37:06;;;;;;;3.17;1.63;;;;;;;14.34;78.60;100168.13;10406275;28;20148;-79
2022/10/24 03:42:06;;;;;;;6.05;1.73;;;;;;;14.17;80.36;100166.03;10421375;28;20049;-80
2022/10/24 03:47:07;;;;;;;7.20;1.50;;;;;;;14.15;80.03;100175.63;10422328;28;20125;-78
2022/10/24 03:52:07;;;;;;;10.07;1.58;;;;;;;14.27;78.89;100169.72;10415460;28;20041;-78
2022/10/24 03:57:11;;;;;;;10.15;1.60;;;;;;;14.26;80.13;100165.31;10419772;28;20519;-78
2022/10/24 04:02:12;;;;;;;6.63;2.08;;;;;;;14.33;78.04;100167.22;10435387;28;20045;-79
2022/10/24 04:07:13;;;;;;;4.47;1.52;;;;;;;14.36;78.25;100169.06;10443728;28;20113;-78
2022/10/24 04:12:13;;;;;;;8.45;2.55;;;;;;;14.53;76.45;100167.66;10430004;28;20128;-78
2022/10/24 04:17:14;;;;;;;7.57;1.63;;;;;;;14.66;77.17;100174.03;10404345;28;20057;-81
2022/10/24 04:22:14;;;;;;;5.15;1.80;;;;;;;14.47;77.75;100179.78;10423827;28;20052;-80
2022/10/24 04:27:15;;;;;;;4.18;1.35;;;;;;;14.42;78.16;100176.19;10407077;28;20132;-80
2022/10/24 04:32:15;;;;;;;3.85;1.60;;;;;;;14.34;78.66;100163.75;10428441;28;20443;-80
2022/10/24 04:37:16;;;;;;;4.93;1.42;;;;;;;14.32;78.69;100172.47;10430399;28;20045;-78
2022/10/24 04:42:16;;;;;;;7.68;2.65;;;;;;;14.44;78.26;100175.38;10443814;28;20045;-82
2022/10/24 04:47:17;;;;;;;5.75;1.45;;;;;;;14.40;79.10;100176.16;10415339;28;20071;-82
2022/10/24 04:52:17;;;;;;;4.97;1.50;;;;;;;14.32;79.08;100180.38;10404584;28;20046;-77
2022/10/24 04:57:18;;;;;;;12.32;1.73;;;;;;;14.36;78.90;100169.94;10417466;28;20037;-77
2022/10/24 05:02:19;;;;;;;8.80;2.58;;;;;;;14.18;80.33;100183.59;10439955;28;20120;-77
2022/10/24 05:07:20;;;;;;;6.55;1.65;;;;;;;14.16;80.12;100190.56;10443305;28;20044;-77
2022/10/24 05:12:21;;;;;;;7.32;1.85;;;;;;;14.14;80.48;100201.91;10424613;28;20033;-78
2022/10/24 05:17:21;;;;;;;14.98;1.95;;;;;;;14.17;80.40;100189.72;10429621;28;20119;-77
2022/10/24 05:22:22;;;;;;;6.45;2.03;;;;;;;14.10;80.51;100208.84;10427424;28;20047;-78
2022/10/24 05:27:23;;;;;;;8.47;3.93;;;;;;;14.23;80.32;100202.09;10413229;28;20049;-77
2022/10/24 05:32:24;;;;;;;5.85;3.03;;;;;;;14.00;81.34;100212.13;10408915;28;20079;-77
2022/10/24 05:37:24;;;;;;;10.55;2.40;;;;;;;14.00;81.36;100214.75;10439198;28;20040;-78
2022/10/24 05:42:25;;;;;;;7.68;2.00;;;;;;;13.90;81.98;100230.31;10406151;28;20110;-77
2022/10/24 05:47:25;;;;;;;7.05;1.40;;;;;;;13.81;83.08;100243.25;10433528;28;20098;-77
2022/10/24 05:52:26;;;;;;;11.80;4.45;;;;;;;13.88;82.58;100239.03;10407037;28;20033;-78
2022/10/24 05:57:27;;;;;;;8.25;2.75;;;;;;;13.84;82.86;100237.16;10400434;28;20140;-80
2022/10/24 06:02:27;;;;;;;5.40;2.00;;;;;;;13.79;82.71;100237.06;10418835;28;20045;-79
2022/10/24 06:07:29;;;;;;;10.70;4.78;;;;;;;13.63;83.49;100239.31;10400453;28;20056;-78
2022/10/24 06:12:29;;;;;;;6.80;2.07;;;;;;;13.60;84.03;100233.97;10396914;28;20034;-84
2022/10/24 06:17:33;;;;;;;10.35;3.67;;;;;;;13.61;83.72;100237.47;10396390;28;20599;-80
2022/10/24 06:22:33;;;;;;;9.18;2.10;;;;;;;13.87;82.25;100237.25;10407653;28;20045;-77
2022/10/24 06:27:34;;;;;;;15.57;3.28;;;;;;;13.98;81.74;100248.91;10379756;28;20125;-79
2022/10/24 06:32:34;;;;;;;4.32;1.63;;;;;;;14.08;80.65;100250.03;10412871;28;20569;-79
2022/10/24 06:37:35;;;;;;;10.05;1.73;;;;;;;13.99;80.69;100255.06;10411805;28;20124;-78
2022/10/24 06:42:36;;;;;;;8.68;1.70;;;;;;;14.02;80.80;100258.66;10409724;28;20481;-76
2022/10/24 06:47:36;;;;;;;6.95;1.98;;;;;;;14.23;79.84;100254.75;10444615;28;20087;-76
2022/10/24 06:52:37;;;;;;;3.90;2.28;;;;;;;14.13;81.19;100264.19;10419683;28;24042;-77
2022/10/24 06:57:37;;;;;;;6.60;2.08;;;;;;;14.03;80.99;100267.44;10411854;28;20084;-74
2022/10/24 07:02:38;;;;;;;11.00;2.47;;;;;;;14.19;80.47;100259.06;10383030;28;20871;-76
2022/10/24 07:07:39;;;;;;;8.30;2.13;;;;;;;14.12;81.01;100274.66;10395122;28;20029;-76
2022/10/24 07:12:43;;;;;;;10.32;1.58;;;;;;;14.16;81.36;100287.94;10408266;28;20034;-76
2022/10/24 07:17:44;;;;;;;6.68;2.45;;;;;;;14.43;80.25;100294.69;10392672;28;20092;-75
2022/10/24 07:22:44;;;;;;;11.15;2.85;;;;;;;14.64;79.87;100302.16;10380596;28;20042;-77
2022/10/24 07:27:45;;;;;;;13.00;2.10;;;;;;;14.71;78.98;100308.50;10403310;28;20099;-77
2022/10/24 07:32:45;;;;;;;9.35;3.00;;;;;;;14.74;79.01;100305.03;10431357;28;20132;-76
2022/10/24 07:37:46;;;;;;;5.72;2.38;;;;;;;14.99;78.79;100309.09;10424958;28;20033;-76
2022/10/24 07:42:47;;;;;;;10.63;3.25;;;;;;;15.02;78.10;100321.44;10435233;28;20041;-77
2022/10/24 07:47:48;;;;;;;8.18;1.92;;;;;;;15.02;77.80;100287.16;10389025;28;20053;-79
2022/10/24 07:52:48;;;;;;;13.10;2.47;;;;;;;15.07;76.98;100319.78;10406085;28;20141;-76
2022/10/24 07:57:49;;;;;;;10.52;1.85;;;;;;;15.08;78.08;100324.19;10405152;28;20033;-78
2022/10/24 08:02:49;;;;;;;10.85;2.70;;;;;;;15.24;77.00;100331.56;10438060;28;20099;-78
2022/10/24 08:07:50;;;;;;;17.80;3.45;;;;;;;15.55;76.26;100328.63;10387726;28;20041;-78
2022/10/24 08:12:50;;;;;;;12.43;2.45;;;;;;;15.76;75.49;100329.88;10403651;28;20053;-77
2022/10/24 08:17:51;;;;;;;11.57;4.07;;;;;;;15.76;75.45;100329.88;10403116;28;20068;-78
2022/10/24 08:22:52;;;;;;;9.27;2.13;;;;;;;15.79;74.44;100344.00;10405247;28;20041;-77
2022/10/24 08:27:52;;;;;;;6.70;2.35;;;;;;;15.83;73.69;100340.56;10380137;28;20041;-78
2022/10/24 08:32:53;;;;;;;8.23;2.55;;;;;;;15.80;73.75;100348.41;10405862;28;20129;-79
2022/10/24 08:37:54;;;;;;;9.05;2.67;;;;;;;15.88;74.40;100361.78;10403537;28;20045;-76
2022/10/24 08:42:54;;;;;;;9.18;3.47;;;;;;;15.98;74.74;100360.19;10405894;28;20132;-79
2022/10/24 08:48:03;;;;;;;16.52;2.65;;;;;;;16.10;75.18;100359.53;10405303;28;20044;-78
2022/10/24 08:53:24;;;;;;;12.35;4.40;;;;;;;16.17;74.98;100365.78;10402959;28;20040;-77
2022/10/24 08:58:26;;;;;;;12.73;3.67;;;;;;;16.18;74.48;100376.38;10403258;28;20040;-76
2022/10/24 09:03:34;;;;;;;16.92;2.65;;;;;;;16.31;72.28;100387.16;10388623;28;20472;-77
2022/10/24 09:08:43;;;;;;;12.15;3.47;;;;;;;16.63;72.09;100378.84;10400048;28;20029;-77
2022/10/24 09:13:44;;;;;;;10.35;3.67;;;;;;;16.83;71.40;100384.41;10368728;28;20048;-78
2022/10/24 09:18:44;;;;;;;13.05;3.80;;;;;;;16.76;71.82;100388.72;10386207;28;20385;-77
2022/10/24 09:23:45;;;;;;;18.10;4.35;;;;;;;16.76;70.25;100383.44;10386487;28;20120;-76
2022/10/24 09:28:45;;;;;;;12.35;3.13;;;;;;;16.84;69.62;100388.81;10403931;28;20029;-77
2022/10/24 09:33:47;;;;;;;10.77;2.40;;;;;;;17.32;68.31;100378.94;10386376;28;20045;-77
2022/10/24 09:38:48;;;;;;;11.57;2.67;;;;;;;18.08;65.91;100392.97;10368888;28;20033;-77
2022/10/24 09:43:56;;;;;;;7.43;2.58;;;;;;;18.29;65.06;100407.28;10385305;28;20034;-78
2022/10/24 09:49:02;;;;;;;15.90;4.13;;;;;;;18.23;63.92;100417.81;10385214;28;20022;-78
2022/10/24 09:54:17;;;;;;;9.82;3.67;;;;;;;18.31;63.95;100411.75;10412852;28;20048;-78
2022/10/24 09:59:36;;;;;;;9.77;2.55;;;;;;;18.44;62.08;100410.06;10423919;28;20053;-77
2022/10/24 10:04:37;;;;;;;12.40;2.88;;;;;;;18.81;62.01;100433.31;10393867;28;20048;-77
2022/10/24 10:09:52;;;;;;;16.33;3.95;;;;;;;19.87;56.46;100429.38;10346087;28;20068;-79
2022/10/24 10:14:53;;;;;;;7.68;2.60;;;;;;;18.46;60.94;100434.81;10430301;28;20037;-79
2022/10/24 10:19:54;;;;;;;7.95;2.50;;;;;;;20.83;55.50;100442.78;10336024;28;20042;-79
2022/10/24 10:24:55;;;;;;;15.05;2.45;;;;;;;19.06;58.30;100449.41;10382894;28;20046;-79
2022/10/24 10:30:06;;;;;;;12.57;3.43;;;;;;;17.90;63.52;100447.50;10389754;28;20394;-77
2022/10/24 10:35:18;;;;;;;15.45;3.47;;;;;;;17.60;63.35;100453.34;10397045;28;20034;-79
2022/10/24 10:40:23;;;;;;;11.25;2.92;;;;;;;18.81;59.57;100464.22;10409031;28;20091;-79
2022/10/24 10:45:40;;;;;;;8.43;2.38;;;;;;;18.55;61.26;100475.50;10397360;28;20541;-81
2022/10/24 10:50:56;;;;;;;14.43;3.50;;;;;;;17.78;63.05;100465.88;10399585;28;20030;-80
2022/10/24 10:56:18;;;;;;;6.88;2.25;;;;;;;17.27;66.15;100486.41;10398318;28;20037;-78
2022/10/24 11:01:24;;;;;;;6.00;3.25;;;;;;;17.26;65.51;100485.50;10394425;28;20136;-80
2022/10/24 11:06:44;;;;;;;7.63;1.95;;;;;;;17.07;66.96;100494.03;10356376;28;20070;-78
2022/10/24 11:11:51;;;;;;;9.85;3.92;;;;;;;16.94;66.43;100485.88;10358745;28;20042;-79
2022/10/24 11:16:53;;;;;;;6.95;2.38;;;;;;;16.99;67.72;100497.47;10342536;28;20624;-80
2022/10/24 11:21:55;;;;;;;15.43;5.20;;;;;;;17.09;66.79;100498.50;10325534;28;20486;-79
2022/10/24 11:27:20;;;;;;;13.23;3.47;;;;;;;17.14;67.33;100503.84;10340569;28;20030;-79
2022/10/24 11:32:20;;;;;;;15.68;4.60;;;;;;;17.32;66.17;100505.88;10355364;28;20100;-79
2022/10/24 11:37:26;;;;;;;11.43;2.70;;;;;;;17.49;65.25;100514.03;10358512;28;20572;-82
2022/10/24 11:42:30;;;;;;;12.88;3.53;;;;;;;17.48;66.03;100512.25;10340948;28;20038;-80
2022/10/24 11:47:36;;;;;;;21.67;3.47;;;;;;;17.50;68.30;100513.16;10358553;28;20046;-81
2022/10/24 11:52:49;;;;;;;9.32;2.30;;;;;;;17.15;66.55;100513.56;10358810;28;20141;-83
2022/10/24 11:57:51;;;;;;;8.48;2.60;;;;;;;16.94;68.05;100522.91;10355945;28;20494;-80
2022/10/24 12:02:55;;;;;;;19.58;2.60;;;;;;;16.90;68.96;100520.19;10344155;28;20057;-81
2022/10/24 12:08:22;;;;;;;16.88;2.75;;;;;;;16.80;68.54;100511.22;10362958;28;20045;-80
2022/10/24 12:13:32;;;;;;;14.00;4.43;;;;;;;16.38;71.15;100516.66;10349137;28;20555;-82
2022/10/24 12:18:46;;;;;;;9.60;2.67;;;;;;;16.38;71.10;100523.72;10363255;28;20046;-80
2022/10/24 12:23:55;;;;;;;10.43;3.40;;;;;;;16.70;70.44;100507.53;10364288;28;20042;-77
2022/10/24 12:29:06;;;;;;;10.45;2.45;;;;;;;16.74;70.69;100509.38;10361330;28;20042;-77
2022/10/24 12:34:15;;;;;;;8.43;2.53;;;;;;;17.02;70.45;100508.06;10363880;28;20061;-81
2022/10/24 12:39:35;;;;;;;6.45;2.30;;;;;;;17.46;68.32;100511.34;10361313;28;20050;-78
2022/10/24 12:44:37;;;;;;;9.82;2.38;;;;;;;17.31;68.95;100512.91;10347768;28;20038;-82
2022/10/24 12:49:38;;;;;;;8.82;2.28;;;;;;;16.96;70.83;100509.72;10347110;28;20040;-81
2022/10/24 12:54:43;;;;;;;7.15;2.03;;;;;;;16.79;70.98;100512.06;10362225;28;20038;-80
2022/10/24 12:59:52;;;;;;;5.60;1.80;;;;;;;16.78;71.39;100502.38;10378131;28;20030;-81
2022/10/24 13:05:37;;;;;;;10.57;2.95;;;;;;;16.72;71.48;100504.03;10363655;28;20045;-78
2022/10/24 13:10:46;;;;;;;4.90;1.30;;;;;;;16.51;72.40;100499.31;10340540;28;20441;-79
2022/10/24 13:16:18;;;;;;;7.10;2.03;;;;;;;16.17;77.63;100525.09;10394188;28;20065;-79
2022/10/24 13:21:30;;;;;;;10.35;2.28;;;;;;;15.13;86.09;100525.47;10369193;28;20056;-77
2022/10/24 13:26:41;;;;;;;9.43;2.30;;;;;;;14.51;92.13;100542.38;10402531;28;20041;-78
2022/10/24 13:31:43;;;;;;;13.27;3.58;;;;;;;13.80;100.00;100546.56;10402999;28;20509;-80
2022/10/24 13:36:44;;;;;;;14.77;3.55;;;;;;;13.39;100.00;100552.31;10366146;28;20041;-81
2022/10/24 13:41:49;;;;;;;15.43;3.53;;;;;;;13.16;100.00;100552.47;10365137;28;20212;-85
2022/10/24 13:46:56;;;;;;;12.32;3.40;;;;;;;13.03;100.00;100553.84;10342914;28;20172;-85
2022/10/24 13:52:16;;;;;;;14.05;3.47;;;;;;;13.02;100.00;100566.91;10359476;28;20113;-86
2022/10/24 13:57:34;;;;;;;13.52;3.95;;;;;;;13.12;100.00;100566.38;10363135;28;20516;-84
2022/10/24 14:02:38;;;;;;;19.73;4.22;;;;;;;13.18;100.00;100560.44;10360226;28;20061;-87
2022/10/24 14:07:38;;;;;;;9.32;3.00;;;;;;;13.32;100.00;100551.25;10343132;28;20034;-87
2022/10/24 14:12:39;;;;;;;11.27;2.83;;;;;;;13.41;100.00;100558.50;10359103;28;20546;-86
2022/10/24 14:17:40;;;;;;;20.75;3.90;;;;;;;13.43;100.00;100556.84;10358998;28;20038;-85
2022/10/24 14:22:41;;;;;;;9.20;2.40;;;;;;;13.41;100.00;100571.66;10373839;28;20120;-84
2022/10/24 14:27:41;;;;;;;15.95;3.47;;;;;;;13.41;100.00;100573.41;10363856;28;20392;-86
2022/10/24 14:32:42;;;;;;;12.63;3.78;;;;;;;13.40;100.00;100585.63;10356616;28;20119;-83
2022/10/24 14:37:42;;;;;;;10.88;2.67;;;;;;;13.44;100.00;100581.44;10355421;28;20112;-83
2022/10/24 14:42:44;;;;;;;14.00;3.60;;;;;;;13.50;100.00;100581.63;10357196;28;20390;-82
2022/10/24 14:47:49;;;;;;;10.60;2.67;;;;;;;14.01;100.00;100591.00;10368032;28;20050;-80
2022/10/24 14:52:50;;;;;;;13.27;2.20;;;;;;;16.22;100.00;100601.72;10345944;28;20045;-82
2022/10/24 14:57:51;;;;;;;14.25;3.15;;;;;;;16.50;95.01;100589.97;10342989;28;20557;-82
2022/10/24 15:02:53;;;;;;;10.63;2.90;;;;;;;16.04;96.19;100591.69;10363473;28;20046;-80
2022/10/24 15:08:06;;;;;;;19.42;3.17;;;;;;;15.69;98.22;100590.03;10340831;28;20049;-80
2022/10/24 15:13:19;;;;;;;15.38;2.72;;;;;;;15.23;99.84;100596.03;10361555;28;20038;-80
2022/10/24 15:18:22;;;;;;;18.30;3.28;;;;;;;14.50;100.00;100606.41;10355880;28;20050;-80
2022/10/24 15:23:31;;;;;;;10.98;2.03;;;;;;;13.96;100.00;100603.13;10356910;28;20046;-81
2022/10/24 15:28:43;;;;;;;11.63;8.13;;;;;;;13.55;100.00;100610.66;10358002;28;20052;-81
2022/10/24 15:33:43;;;;;;;15.60;3.28;;;;;;;13.36;100.00;100604.78;10356559;28;20038;-85
2022/10/24 15:38:44;;;;;;;8.70;2.75;;;;;;;13.13;100.00;100625.06;10345623;28;20038;-82
2022/10/24 15:43:44;;;;;;;12.55;2.35;;;;;;;13.04;100.00;100620.41;10365200;28;20125;-82
2022/10/24 15:48:45;;;;;;;11.40;2.65;;;;;;;12.95;100.00;100617.44;10362643;28;20066;-83
2022/10/24 15:53:46;;;;;;;12.30;3.45;;;;;;;12.86;100.00;100631.19;10386935;28;20124;-81
2022/10/24 16:04:11;;;;;;;13.95;3.08;;;;;;;12.70;100.00;100628.03;10363063;28;20038;-84
2022/10/24 16:09:13;;;;;;;7.38;2.00;;;;;;;12.80;100.00;100634.47;10363431;28;20374;-82
2022/10/24 16:14:14;;;;;;;10.07;3.17;;;;;;;12.73;100.00;100637.72;10363830;28;20041;-82
2022/10/24 16:19:15;;;;;;;13.13;3.33;;;;;;;12.71;100.00;100635.06;10364015;28;20034;-82
2022/10/24 16:24:17;;;;;;;13.55;2.22;;;;;;;12.65;100.00;100645.34;10365631;28;20061;-82
2022/10/24 16:29:17;;;;;;;8.38;2.58;;;;;;;12.48;100.00;100652.59;10364720;28;20042;-82
2022/10/24 16:34:18;;;;;;;10.60;3.95;;;;;;;12.43;100.00;100665.56;10364743;28;20046;-82
2022/10/24 16:39:18;;;;;;;12.15;3.03;;;;;;;12.34;100.00;100655.59;10361825;28;20052;-82
2022/10/24 16:44:19;;;;;;;20.00;2.47;;;;;;;12.27;100.00;100656.22;10363538;28;20128;-81
2022/10/24 16:49:20;;;;;;;8.25;2.63;;;;;;;12.26;100.00;100664.94;10361392;28;20045;-81
2022/10/24 16:54:21;;;;;;;9.73;3.10;;;;;;;12.24;100.00;100665.72;10359895;28;20038;-81
2022/10/24 16:59:22;;;;;;;21.20;5.13;;;;;;;12.14;100.00;100675.88;10361774;28;20110;-81
2022/10/24 17:04:22;;;;;;;14.73;2.50;;;;;;;12.07;100.00;100679.09;10362585;28;20046;-82
2022/10/24 17:09:23;;;;;;;26.63;6.95;;;;;;;11.85;100.00;100678.22;10362636;28;20038;-83
2022/10/24 17:14:23;;;;;;;9.93;3.17;;;;;;;11.58;100.00;100683.25;10360516;28;20088;-82
2022/10/24 17:19:24;;;;;;;12.23;3.05;;;;;;;11.40;100.00;100689.50;10360856;28;20045;-82
2022/10/24 17:24:24;;;;;;;38.58;9.25;;;;;;;11.19;100.00;100686.91;10357510;28;20046;-80
2022/10/24 17:29:26;;;;;;;12.48;2.88;;;;;;;11.06;100.00;100687.22;10362154;28;20045;-81
2022/10/24 17:34:27;;;;;;;10.33;3.20;;;;;;;11.12;100.00;100687.47;10363210;28;20103;-81
2022/10/24 17:39:31;;;;;;;10.93;3.38;;;;;;;10.98;100.00;100685.16;10361700;28;20053;-83
2022/10/24 17:44:31;;;;;;;25.35;6.05;;;;;;;10.88;100.00;100690.84;10361699;28;20052;-84
2022/10/24 17:49:32;;;;;;;27.65;6.05;;;;;;;10.81;100.00;100704.47;10362245;28;20136;-82
2022/10/24 17:54:33;;;;;;;74.22;8.65;;;;;;;10.68;100.00;100708.25;10360888;28;20033;-83
2022/10/24 17:59:33;;;;;;;27.88;4.63;;;;;;;10.68;100.00;100703.94;10360216;28;20036;-83
2022/10/24 18:04:34;;;;;;;12.07;3.42;;;;;;;10.71;100.00;100713.63;10362284;28;20062;-83
2022/10/24 18:09:37;;;;;;;10.55;3.13;;;;;;;10.54;100.00;100711.16;10361011;28;20049;-83
2022/10/24 18:14:38;;;;;;;60.85;9.52;;;;;;;10.58;100.00;100727.91;10358117;28;20052;-83
2022/10/24 18:19:38;;;;;;;15.48;3.60;;;;;;;10.67;100.00;100732.66;10360668;28;20044;-83
2022/10/24 18:24:39;;;;;;;9.02;3.42;;;;;;;10.73;100.00;100735.53;10361024;28;20037;-82
2022/10/24 18:29:39;;;;;;;15.38;3.92;;;;;;;10.84;100.00;100734.28;10360433;28;20041;-82
2022/10/24 18:34:40;;;;;;;11.68;3.88;;;;;;;10.88;100.00;100732.72;10356553;28;20042;-82
2022/10/24 18:39:41;;;;;;;11.35;4.07;;;;;;;10.88;100.00;100732.72;10362047;28;20492;-83
2022/10/24 18:44:42;;;;;;;20.10;6.45;;;;;;;11.02;100.00;100735.94;10357601;28;20045;-83
2022/10/24 18:49:43;;;;;;;12.25;4.43;;;;;;;11.16;100.00;100731.31;10360522;28;20061;-83
2022/10/24 18:55:12;;;;;;;11.82;5.68;;;;;;;11.39;100.00;100736.63;10360627;28;20120;-83
2022/10/24 19:00:15;;;;;;;14.85;4.25;;;;;;;11.53;100.00;100734.56;10358751;28;20486;-86
2022/10/24 19:05:19;;;;;;;20.98;5.70;;;;;;;11.62;100.00;100761.16;10357563;28;20046;-85
2022/10/24 19:10:21;;;;;;;11.25;3.90;;;;;;;11.81;100.00;100767.16;10354555;28;20484;-86
2022/10/24 19:15:21;;;;;;;9.98;3.80;;;;;;;12.01;100.00;100773.28;10359680;28;20139;-87
2022/10/24 19:20:22;;;;;;;12.68;4.28;;;;;;;11.82;100.00;100779.44;10359220;28;20042;-85
2022/10/24 19:25:23;;;;;;;3.70;1.33;;;;;;;11.38;100.00;100761.06;10358545;28;20038;-84
2022/10/24 19:30:24;;;;;;;4.65;1.13;;;;;;;11.08;100.00;100767.63;10356088;28;20048;-89
2022/10/24 19:35:24;;;;;;;4.40;1.55;;;;;;;10.95;100.00;100786.25;10358229;28;20038;-88
2022/10/24 19:40:25;;;;;;;5.18;1.30;;;;;;;10.85;100.00;100787.56;10358504;28;20394;-87
2022/10/24 19:45:25;;;;;;;5.88;1.23;;;;;;;10.78;100.00;100782.88;10357078;28;20042;-87
2022/10/24 19:50:26;;;;;;;4.57;1.80;;;;;;;10.74;100.00;100787.06;10359534;28;20040;-83
2022/10/24 19:55:26;;;;;;;3.38;0.80;;;;;;;10.63;100.00;100783.06;10356764;28;20046;-82
2022/10/24 20:00:30;;;;;;;3.88;0.85;;;;;;;10.58;100.00;100786.34;10357805;28;20064;-83
2022/10/24 20:05:30;;;;;;;5.63;1.15;;;;;;;10.56;100.00;100789.75;10358477;28;20038;-85
2022/10/24 20:10:31;;;;;;;3.78;1.10;;;;;;;10.52;100.00;100790.44;10339360;28;20045;-87
2022/10/24 20:15:31;;;;;;;4.85;1.20;;;;;;;10.45;100.00;100786.63;10356843;28;20042;-86
2022/10/24 20:20:34;;;;;;;5.32;1.15;;;;;;;10.39;100.00;100787.25;10357682;28;20065;-85
2022/10/24 20:25:34;;;;;;;11.10;1.83;;;;;;;10.37;100.00;100787.94;10362846;28;20041;-86
2022/10/24 20:30:47;;;;;;;7.63;2.20;;;;;;;10.31;100.00;100796.41;10364695;28;20121;-85
2022/10/24 20:35:48;;;;;;;8.00;1.70;;;;;;;10.50;100.00;100792.09;10325276;28;20515;-86
2022/10/24 20:40:48;;;;;;;5.55;1.45;;;;;;;10.66;100.00;100804.13;10326936;28;20060;-90
2022/10/24 20:45:49;;;;;;;13.73;2.20;;;;;;;10.56;100.00;100805.44;10364699;28;20445;-86
2022/10/24 20:50:49;;;;;;;7.85;4.53;;;;;;;10.54;100.00;100810.59;10365308;28;20037;-86
2022/10/24 20:55:50;;;;;;;12.18;2.85;;;;;;;10.43;100.00;100817.03;10363435;28;20500;-86
2022/10/24 21:00:50;;;;;;;10.25;2.53;;;;;;;10.34;100.00;100813.97;10364669;28;20121;-83
2022/10/24 21:05:51;;;;;;;8.68;2.20;;;;;;;10.09;100.00;100820.63;10365323;28;20057;-86
2022/10/24 21:10:51;;;;;;;7.35;2.60;;;;;;;10.05;100.00;100821.28;10363345;28;20041;-86
2022/10/24 21:15:55;;;;;;;10.02;2.38;;;;;;;9.96;100.00;100827.84;10365231;28;20030;-87
2022/10/24 21:20:56;;;;;;;28.38;4.55;;;;;;;9.91;100.00;100846.78;10362960;28;20490;-87
2022/10/24 21:26:01;;;;;;;6.10;2.80;;;;;;;9.91;100.00;100847.66;10362763;28;20113;-87
2022/10/24 21:31:03;;;;;;;13.02;2.65;;;;;;;9.83;100.00;100859.44;10363117;28;20038;-86
2022/10/24 21:36:05;;;;;;;28.63;6.35;;;;;;;9.77;100.00;100856.50;10346341;28;20060;-86
2022/10/24 21:41:07;;;;;;;11.32;4.65;;;;;;;9.70;100.00;100869.28;10361498;28;20062;-87
2022/10/24 21:46:12;;;;;;;6.03;1.85;;;;;;;9.83;100.00;100877.75;10362365;28;20045;-86
2022/10/24 21:51:23;;;;;;;9.18;2.67;;;;;;;10.07;100.00;100877.19;10361508;28;20095;-85
2022/10/24 21:56:26;;;;;;;13.10;3.90;;;;;;;10.27;100.00;100883.41;10361885;28;20045;-86
2022/10/24 22:01:28;;;;;;;11.52;2.95;;;;;;;10.39;100.00;100884.03;10360263;28;20038;-85
2022/10/24 22:06:29;;;;;;;;;;;;;;;10.68;100.00;100883.63;10360992;28;20044;-84
2022/10/24 22:11:30;;;;;;;23.48;7.28;;;;;;;10.66;100.00;100888.81;10361829;28;20384;-85
2022/10/24 22:16:31;;;;;;;15.90;6.40;;;;;;;10.65;100.00;100891.34;10360309;28;20038;-86
2022/10/24 22:21:33;;;;;;;15.93;3.97;;;;;;;10.66;100.00;100888.81;10358887;28;20117;-83
2022/10/24 22:26:34;;;;;;;13.73;4.57;;;;;;;10.73;100.00;100895.22;10358484;28;20045;-84
2022/10/24 22:31:35;;;;;;;18.38;5.00;;;;;;;10.78;100.00;100892.84;10344013;28;20039;-81
2022/10/24 22:36:50;;;;;;;15.27;5.55;;;;;;;10.68;100.00;100901.97;10360452;28;20061;-82
2022/10/24 22:41:51;;;;;;;15.43;5.90;;;;;;;10.78;100.00;100909.41;10358837;28;20084;-81
2022/10/24 22:47:16;;;;;;;19.38;5.53;;;;;;;10.78;100.00;100908.53;10360659;28;20125;-81
2022/10/24 22:52:17;;;;;;;20.63;5.13;;;;;;;10.75;100.00;100911.91;10358325;28;20038;-86
2022/10/24 22:57:18;;;;;;;19.80;6.20;;;;;;;10.77;100.00;100910.25;10342462;28;20041;-84
2022/10/24 23:02:29;;;;;;;17.50;4.57;;;;;;;10.88;100.00;100908.16;10361088;28;20040;-85
2022/10/24 23:07:54;;;;;;;17.63;5.38;;;;;;;11.11;100.00;100924.91;10359585;28;20045;-85